sensor_id;sensor_type;location;lat;lon;timestamp;P1;durP1;ratioP1;P2;durP2;ratioP2
41059;SDS011;26811;53.160;8.202;2023-04-25T00:04:45;30.52;;;5.63;;
41059;SDS011;26811;53.160;8.202;2023-04-25T00:09:46;43.20;;;5.75;;
41059;SDS011;26811;53.160;8.202;2023-04-25T00:14:46;33.72;;;6.10;;
41059;SDS011;26811;53.160;8.202;2023-04-25T00:19:49;32.80;;;5.30;;
41059;SDS011;26811;53.160;8.202;2023-04-25T00:24:50;34.25;;;6.30;;
41059;SDS011;26811;53.160;8.202;2023-04-25T00:29:53;31.55;;;6.97;;
41059;SDS011;26811;53.160;8.202;2023-04-25T00:34:54;24.70;;;5.53;;
41059;SDS011;26811;53.160;8.202;2023-04-25T00:39:57;23.38;;;4.90;;
41059;SDS011;26811;53.160;8.202;2023-04-25T00:44:58;34.87;;;6.17;;
41059;SDS011;26811;53.160;8.202;2023-04-25T00:49:59;34.83;;;5.85;;
41059;SDS011;26811;53.160;8.202;2023-04-25T00:54:59;30.15;;;6.43;;
41059;SDS011;26811;53.160;8.202;2023-04-25T01:00:01;32.22;;;5.97;;
41059;SDS011;26811;53.160;8.202;2023-04-25T01:05:06;25.80;;;6.28;;
41059;SDS011;26811;53.160;8.202;2023-04-25T01:10:07;35.55;;;6.10;;
41059;SDS011;26811;53.160;8.202;2023-04-25T01:15:08;41.17;;;6.97;;
41059;SDS011;26811;53.160;8.202;2023-04-25T01:20:09;29.90;;;6.40;;
41059;SDS011;26811;53.160;8.202;2023-04-25T01:25:11;28.02;;;6.07;;
41059;SDS011;26811;53.160;8.202;2023-04-25T01:30:12;36.20;;;6.07;;
41059;SDS011;26811;53.160;8.202;2023-04-25T01:35:13;31.02;;;5.68;;
41059;SDS011;26811;53.160;8.202;2023-04-25T01:40:14;32.80;;;5.15;;
41059;SDS011;26811;53.160;8.202;2023-04-25T01:45:14;25.25;;;5.55;;
41059;SDS011;26811;53.160;8.202;2023-04-25T01:50:17;19.67;;;5.07;;
41059;SDS011;26811;53.160;8.202;2023-04-25T01:55:18;22.67;;;5.80;;
41059;SDS011;26811;53.160;8.202;2023-04-25T02:00:19;36.47;;;5.10;;
41059;SDS011;26811;53.160;8.202;2023-04-25T02:05:19;34.08;;;6.32;;
41059;SDS011;26811;53.160;8.202;2023-04-25T02:10:20;29.02;;;5.35;;
41059;SDS011;26811;53.160;8.202;2023-04-25T02:15:21;31.85;;;6.03;;
41059;SDS011;26811;53.160;8.202;2023-04-25T02:20:22;26.02;;;5.85;;
41059;SDS011;26811;53.160;8.202;2023-04-25T02:25:23;23.15;;;4.78;;
41059;SDS011;26811;53.160;8.202;2023-04-25T02:30:23;34.92;;;5.68;;
41059;SDS011;26811;53.160;8.202;2023-04-25T02:35:24;39.78;;;6.28;;
41059;SDS011;26811;53.160;8.202;2023-04-25T02:40:24;28.42;;;5.80;;
41059;SDS011;26811;53.160;8.202;2023-04-25T02:45:25;24.92;;;5.15;;
41059;SDS011;26811;53.160;8.202;2023-04-25T02:50:25;28.85;;;4.80;;
41059;SDS011;26811;53.160;8.202;2023-04-25T02:55:26;26.42;;;4.47;;
41059;SDS011;26811;53.160;8.202;2023-04-25T03:00:27;29.30;;;4.88;;
41059;SDS011;26811;53.160;8.202;2023-04-25T03:05:27;33.08;;;4.70;;
41059;SDS011;26811;53.160;8.202;2023-04-25T03:10:28;26.50;;;4.78;;
41059;SDS011;26811;53.160;8.202;2023-04-25T03:15:28;30.77;;;4.30;;
41059;SDS011;26811;53.160;8.202;2023-04-25T03:20:29;17.75;;;4.63;;
41059;SDS011;26811;53.160;8.202;2023-04-25T03:25:30;14.95;;;4.15;;
41059;SDS011;26811;53.160;8.202;2023-04-25T03:30:30;21.25;;;4.40;;
41059;SDS011;26811;53.160;8.202;2023-04-25T03:35:31;28.90;;;4.10;;
41059;SDS011;26811;53.160;8.202;2023-04-25T03:40:31;20.20;;;4.00;;
41059;SDS011;26811;53.160;8.202;2023-04-25T03:45:32;19.17;;;3.85;;
41059;SDS011;26811;53.160;8.202;2023-04-25T03:50:32;21.92;;;4.82;;
41059;SDS011;26811;53.160;8.202;2023-04-25T03:55:33;22.67;;;4.32;;
41059;SDS011;26811;53.160;8.202;2023-04-25T04:00:34;17.27;;;4.03;;
41059;SDS011;26811;53.160;8.202;2023-04-25T04:05:35;24.23;;;4.35;;
41059;SDS011;26811;53.160;8.202;2023-04-25T04:10:37;23.75;;;4.28;;
41059;SDS011;26811;53.160;8.202;2023-04-25T04:15:37;19.15;;;4.25;;
41059;SDS011;26811;53.160;8.202;2023-04-25T04:20:38;20.08;;;3.47;;
41059;SDS011;26811;53.160;8.202;2023-04-25T04:25:38;19.65;;;3.67;;
41059;SDS011;26811;53.160;8.202;2023-04-25T04:30:40;15.63;;;3.38;;
41059;SDS011;26811;53.160;8.202;2023-04-25T04:35:41;21.27;;;4.35;;
41059;SDS011;26811;53.160;8.202;2023-04-25T04:40:41;13.77;;;3.63;;
41059;SDS011;26811;53.160;8.202;2023-04-25T04:45:43;17.45;;;3.35;;
41059;SDS011;26811;53.160;8.202;2023-04-25T04:50:44;16.17;;;3.35;;
41059;SDS011;26811;53.160;8.202;2023-04-25T04:55:45;14.10;;;3.58;;
41059;SDS011;26811;53.160;8.202;2023-04-25T05:00:46;16.45;;;3.38;;
41059;SDS011;26811;53.160;8.202;2023-04-25T05:05:46;16.00;;;3.03;;
41059;SDS011;26811;53.160;8.202;2023-04-25T05:10:47;14.30;;;2.85;;
41059;SDS011;26811;53.160;8.202;2023-04-25T05:15:47;16.73;;;3.60;;
41059;SDS011;26811;53.160;8.202;2023-04-25T05:20:48;8.43;;;3.13;;
41059;SDS011;26811;53.160;8.202;2023-04-25T05:25:48;8.38;;;3.15;;
41059;SDS011;26811;53.160;8.202;2023-04-25T05:30:49;11.82;;;3.55;;
41059;SDS011;26811;53.160;8.202;2023-04-25T05:35:50;16.67;;;3.47;;
41059;SDS011;26811;53.160;8.202;2023-04-25T05:40:50;19.23;;;3.70;;
41059;SDS011;26811;53.160;8.202;2023-04-25T05:45:51;12.70;;;3.70;;
41059;SDS011;26811;53.160;8.202;2023-04-25T05:50:51;18.73;;;3.10;;
41059;SDS011;26811;53.160;8.202;2023-04-25T05:55:52;8.20;;;2.53;;
41059;SDS011;26811;53.160;8.202;2023-04-25T06:00:52;7.43;;;2.50;;
41059;SDS011;26811;53.160;8.202;2023-04-25T06:05:53;12.32;;;2.90;;
41059;SDS011;26811;53.160;8.202;2023-04-25T06:10:53;8.90;;;2.65;;
41059;SDS011;26811;53.160;8.202;2023-04-25T06:15:54;13.50;;;2.92;;
41059;SDS011;26811;53.160;8.202;2023-04-25T06:20:54;17.65;;;2.78;;
41059;SDS011;26811;53.160;8.202;2023-04-25T06:25:55;13.55;;;2.47;;
41059;SDS011;26811;53.160;8.202;2023-04-25T06:30:55;11.50;;;3.10;;
41059;SDS011;26811;53.160;8.202;2023-04-25T06:35:56;13.02;;;2.65;;
41059;SDS011;26811;53.160;8.202;2023-04-25T06:40:57;8.40;;;2.20;;
41059;SDS011;26811;53.160;8.202;2023-04-25T06:45:57;9.43;;;2.08;;
41059;SDS011;26811;53.160;8.202;2023-04-25T06:50:58;10.45;;;2.45;;
41059;SDS011;26811;53.160;8.202;2023-04-25T06:55:58;10.27;;;1.88;;
41059;SDS011;26811;53.160;8.202;2023-04-25T07:00:59;10.10;;;1.80;;
41059;SDS011;26811;53.160;8.202;2023-04-25T07:05:59;5.68;;;1.85;;
41059;SDS011;26811;53.160;8.202;2023-04-25T07:11:00;12.68;;;2.00;;
41059;SDS011;26811;53.160;8.202;2023-04-25T07:16:01;8.23;;;1.80;;
41059;SDS011;26811;53.160;8.202;2023-04-25T07:21:01;4.90;;;1.42;;
41059;SDS011;26811;53.160;8.202;2023-04-25T07:26:02;8.93;;;1.90;;
41059;SDS011;26811;53.160;8.202;2023-04-25T07:31:02;8.18;;;1.98;;
41059;SDS011;26811;53.160;8.202;2023-04-25T07:36:03;12.10;;;1.77;;
41059;SDS011;26811;53.160;8.202;2023-04-25T07:41:04;8.73;;;2.47;;
41059;SDS011;26811;53.160;8.202;2023-04-25T07:46:05;14.45;;;2.10;;
41059;SDS011;26811;53.160;8.202;2023-04-25T07:51:06;11.65;;;1.90;;
41059;SDS011;26811;53.160;8.202;2023-04-25T07:56:07;5.22;;;1.50;;
41059;SDS011;26811;53.160;8.202;2023-04-25T08:01:07;5.90;;;1.77;;
41059;SDS011;26811;53.160;8.202;2023-04-25T08:06:08;4.18;;;1.60;;
41059;SDS011;26811;53.160;8.202;2023-04-25T08:11:09;4.53;;;1.70;;
41059;SDS011;26811;53.160;8.202;2023-04-25T08:16:10;6.05;;;1.70;;
41059;SDS011;26811;53.160;8.202;2023-04-25T08:21:11;8.90;;;2.75;;
41059;SDS011;26811;53.160;8.202;2023-04-25T08:26:12;5.03;;;1.70;;
41059;SDS011;26811;53.160;8.202;2023-04-25T08:31:12;5.10;;;1.52;;
41059;SDS011;26811;53.160;8.202;2023-04-25T08:36:13;12.77;;;1.48;;
41059;SDS011;26811;53.160;8.202;2023-04-25T08:41:14;8.15;;;1.58;;
41059;SDS011;26811;53.160;8.202;2023-04-25T08:46:17;5.78;;;1.40;;
41059;SDS011;26811;53.160;8.202;2023-04-25T08:51:21;3.67;;;1.60;;
41059;SDS011;26811;53.160;8.202;2023-04-25T08:56:25;5.22;;;1.50;;
41059;SDS011;26811;53.160;8.202;2023-04-25T09:01:26;6.30;;;1.60;;
41059;SDS011;26811;53.160;8.202;2023-04-25T09:06:28;5.65;;;1.95;;
41059;SDS011;26811;53.160;8.202;2023-04-25T09:16:31;3.80;;;1.40;;
41059;SDS011;26811;53.160;8.202;2023-04-25T09:21:32;8.07;;;1.60;;
41059;SDS011;26811;53.160;8.202;2023-04-25T09:26:34;8.23;;;1.60;;
41059;SDS011;26811;53.160;8.202;2023-04-25T09:31:34;7.40;;;1.80;;
41059;SDS011;26811;53.160;8.202;2023-04-25T09:36:35;5.50;;;1.30;;
41059;SDS011;26811;53.160;8.202;2023-04-25T09:41:37;7.25;;;1.80;;
41059;SDS011;26811;53.160;8.202;2023-04-25T09:46:37;4.22;;;1.75;;
41059;SDS011;26811;53.160;8.202;2023-04-25T09:51:38;3.60;;;1.52;;
41059;SDS011;26811;53.160;8.202;2023-04-25T09:56:38;5.00;;;1.48;;
41059;SDS011;26811;53.160;8.202;2023-04-25T10:01:40;2.97;;;1.42;;
41059;SDS011;26811;53.160;8.202;2023-04-25T10:06:41;7.45;;;1.45;;
41059;SDS011;26811;53.160;8.202;2023-04-25T10:11:44;5.43;;;1.55;;
41059;SDS011;26811;53.160;8.202;2023-04-25T10:16:47;10.43;;;1.85;;
41059;SDS011;26811;53.160;8.202;2023-04-25T10:21:50;5.72;;;1.90;;
41059;SDS011;26811;53.160;8.202;2023-04-25T10:27:14;6.93;;;1.52;;
41059;SDS011;26811;53.160;8.202;2023-04-25T10:32:15;6.50;;;1.60;;
41059;SDS011;26811;53.160;8.202;2023-04-25T10:37:16;9.23;;;1.80;;
41059;SDS011;26811;53.160;8.202;2023-04-25T10:42:18;7.93;;;1.70;;
41059;SDS011;26811;53.160;8.202;2023-04-25T10:47:19;9.25;;;1.70;;
41059;SDS011;26811;53.160;8.202;2023-04-25T10:52:43;6.15;;;1.45;;
41059;SDS011;26811;53.160;8.202;2023-04-25T10:57:44;5.22;;;1.50;;
41059;SDS011;26811;53.160;8.202;2023-04-25T11:02:58;9.50;;;1.50;;
41059;SDS011;26811;53.160;8.202;2023-04-25T11:07:59;6.88;;;1.50;;
41059;SDS011;26811;53.160;8.202;2023-04-25T11:13:00;8.13;;;1.55;;
41059;SDS011;26811;53.160;8.202;2023-04-25T11:18:01;7.68;;;1.33;;
41059;SDS011;26811;53.160;8.202;2023-04-25T11:23:03;5.90;;;1.40;;
41059;SDS011;26811;53.160;8.202;2023-04-25T11:28:04;10.77;;;2.20;;
41059;SDS011;26811;53.160;8.202;2023-04-25T11:33:05;4.57;;;1.38;;
41059;SDS011;26811;53.160;8.202;2023-04-25T11:38:05;8.05;;;1.85;;
41059;SDS011;26811;53.160;8.202;2023-04-25T11:43:06;7.53;;;1.70;;
41059;SDS011;26811;53.160;8.202;2023-04-25T11:48:07;10.63;;;1.55;;
41059;SDS011;26811;53.160;8.202;2023-04-25T11:53:07;4.53;;;1.50;;
41059;SDS011;26811;53.160;8.202;2023-04-25T11:58:08;4.90;;;1.70;;
41059;SDS011;26811;53.160;8.202;2023-04-25T12:03:09;12.20;;;1.65;;
41059;SDS011;26811;53.160;8.202;2023-04-25T12:08:12;7.18;;;1.60;;
41059;SDS011;26811;53.160;8.202;2023-04-25T12:13:32;5.32;;;1.38;;
41059;SDS011;26811;53.160;8.202;2023-04-25T12:18:32;5.78;;;1.60;;
41059;SDS011;26811;53.160;8.202;2023-04-25T12:28:38;3.90;;;1.42;;
41059;SDS011;26811;53.160;8.202;2023-04-25T12:33:39;5.90;;;1.35;;
41059;SDS011;26811;53.160;8.202;2023-04-25T12:38:41;8.18;;;1.65;;
41059;SDS011;26811;53.160;8.202;2023-04-25T12:43:42;6.47;;;1.52;;
41059;SDS011;26811;53.160;8.202;2023-04-25T12:48:42;7.63;;;1.35;;
41059;SDS011;26811;53.160;8.202;2023-04-25T12:53:43;4.97;;;1.30;;
41059;SDS011;26811;53.160;8.202;2023-04-25T12:58:43;3.30;;;1.50;;
41059;SDS011;26811;53.160;8.202;2023-04-25T13:03:44;4.20;;;1.40;;
41059;SDS011;26811;53.160;8.202;2023-04-25T13:08:44;5.97;;;1.33;;
41059;SDS011;26811;53.160;8.202;2023-04-25T13:13:45;6.70;;;1.60;;
41059;SDS011;26811;53.160;8.202;2023-04-25T13:18:46;4.93;;;1.60;;
41059;SDS011;26811;53.160;8.202;2023-04-25T13:23:46;5.07;;;1.48;;
41059;SDS011;26811;53.160;8.202;2023-04-25T13:28:47;3.17;;;1.45;;
41059;SDS011;26811;53.160;8.202;2023-04-25T13:33:47;5.40;;;1.55;;
41059;SDS011;26811;53.160;8.202;2023-04-25T13:38:48;5.95;;;1.40;;
41059;SDS011;26811;53.160;8.202;2023-04-25T13:43:49;4.03;;;1.50;;
41059;SDS011;26811;53.160;8.202;2023-04-25T13:48:50;5.30;;;1.60;;
41059;SDS011;26811;53.160;8.202;2023-04-25T13:53:51;12.40;;;2.00;;
41059;SDS011;26811;53.160;8.202;2023-04-25T13:58:52;7.65;;;1.40;;
41059;SDS011;26811;53.160;8.202;2023-04-25T14:03:52;6.55;;;1.40;;
41059;SDS011;26811;53.160;8.202;2023-04-25T14:08:53;5.50;;;1.55;;
41059;SDS011;26811;53.160;8.202;2023-04-25T14:13:54;5.22;;;1.73;;
41059;SDS011;26811;53.160;8.202;2023-04-25T14:18:55;7.28;;;1.58;;
41059;SDS011;26811;53.160;8.202;2023-04-25T14:23:55;6.00;;;2.65;;
41059;SDS011;26811;53.160;8.202;2023-04-25T14:28:56;6.50;;;1.98;;
41059;SDS011;26811;53.160;8.202;2023-04-25T14:33:56;3.05;;;1.48;;
41059;SDS011;26811;53.160;8.202;2023-04-25T14:38:57;4.90;;;1.98;;
41059;SDS011;26811;53.160;8.202;2023-04-25T14:43:58;3.65;;;1.63;;
41059;SDS011;26811;53.160;8.202;2023-04-25T14:48:59;7.63;;;1.70;;
41059;SDS011;26811;53.160;8.202;2023-04-25T14:54:01;4.32;;;1.65;;
41059;SDS011;26811;53.160;8.202;2023-04-25T14:59:02;8.52;;;1.90;;
41059;SDS011;26811;53.160;8.202;2023-04-25T15:04:02;8.90;;;2.17;;
41059;SDS011;26811;53.160;8.202;2023-04-25T15:09:03;10.13;;;1.83;;
41059;SDS011;26811;53.160;8.202;2023-04-25T15:14:04;9.48;;;1.90;;
41059;SDS011;26811;53.160;8.202;2023-04-25T15:19:05;3.20;;;1.58;;
41059;SDS011;26811;53.160;8.202;2023-04-25T15:24:06;5.57;;;1.48;;
41059;SDS011;26811;53.160;8.202;2023-04-25T15:29:07;5.10;;;1.60;;
41059;SDS011;26811;53.160;8.202;2023-04-25T15:34:08;5.57;;;1.65;;
41059;SDS011;26811;53.160;8.202;2023-04-25T15:39:08;3.33;;;1.55;;
41059;SDS011;26811;53.160;8.202;2023-04-25T15:44:09;5.43;;;1.50;;
41059;SDS011;26811;53.160;8.202;2023-04-25T15:49:10;9.38;;;3.08;;
41059;SDS011;26811;53.160;8.202;2023-04-25T15:54:11;4.18;;;1.45;;
41059;SDS011;26811;53.160;8.202;2023-04-25T15:59:12;7.40;;;1.50;;
41059;SDS011;26811;53.160;8.202;2023-04-25T16:04:13;7.28;;;1.90;;
41059;SDS011;26811;53.160;8.202;2023-04-25T16:09:14;7.88;;;1.75;;
41059;SDS011;26811;53.160;8.202;2023-04-25T16:14:16;6.78;;;1.80;;
41059;SDS011;26811;53.160;8.202;2023-04-25T16:19:17;10.70;;;1.90;;
41059;SDS011;26811;53.160;8.202;2023-04-25T16:24:17;6.38;;;2.10;;
41059;SDS011;26811;53.160;8.202;2023-04-25T16:29:18;9.57;;;2.30;;
41059;SDS011;26811;53.160;8.202;2023-04-25T16:34:18;6.63;;;1.70;;
41059;SDS011;26811;53.160;8.202;2023-04-25T16:39:20;7.72;;;1.75;;
41059;SDS011;26811;53.160;8.202;2023-04-25T16:44:23;3.97;;;1.50;;
41059;SDS011;26811;53.160;8.202;2023-04-25T16:49:24;6.70;;;1.83;;
41059;SDS011;26811;53.160;8.202;2023-04-25T16:54:25;5.57;;;1.88;;
41059;SDS011;26811;53.160;8.202;2023-04-25T16:59:26;10.13;;;2.20;;
41059;SDS011;26811;53.160;8.202;2023-04-25T17:04:27;6.68;;;1.98;;
41059;SDS011;26811;53.160;8.202;2023-04-25T17:09:27;5.03;;;1.73;;
41059;SDS011;26811;53.160;8.202;2023-04-25T17:14:28;6.82;;;2.15;;
41059;SDS011;26811;53.160;8.202;2023-04-25T17:19:29;7.53;;;2.20;;
41059;SDS011;26811;53.160;8.202;2023-04-25T17:24:30;10.98;;;3.10;;
41059;SDS011;26811;53.160;8.202;2023-04-25T17:29:31;8.95;;;3.50;;
41059;SDS011;26811;53.160;8.202;2023-04-25T17:34:32;8.82;;;2.70;;
41059;SDS011;26811;53.160;8.202;2023-04-25T17:44:37;14.23;;;4.85;;
41059;SDS011;26811;53.160;8.202;2023-04-25T17:49:38;4.57;;;1.98;;
41059;SDS011;26811;53.160;8.202;2023-04-25T17:54:39;10.90;;;3.08;;
41059;SDS011;26811;53.160;8.202;2023-04-25T17:59:41;8.30;;;2.45;;
41059;SDS011;26811;53.160;8.202;2023-04-25T18:04:41;7.55;;;1.80;;
41059;SDS011;26811;53.160;8.202;2023-04-25T18:09:42;8.45;;;2.25;;
41059;SDS011;26811;53.160;8.202;2023-04-25T18:14:43;11.10;;;2.08;;
41059;SDS011;26811;53.160;8.202;2023-04-25T18:19:45;6.40;;;2.17;;
41059;SDS011;26811;53.160;8.202;2023-04-25T18:24:48;10.63;;;2.20;;
41059;SDS011;26811;53.160;8.202;2023-04-25T18:29:49;10.20;;;2.17;;
41059;SDS011;26811;53.160;8.202;2023-04-25T18:34:50;11.10;;;2.65;;
41059;SDS011;26811;53.160;8.202;2023-04-25T18:39:50;8.68;;;2.17;;
41059;SDS011;26811;53.160;8.202;2023-04-25T18:44:53;12.60;;;2.20;;
41059;SDS011;26811;53.160;8.202;2023-04-25T18:49:54;12.57;;;2.63;;
41059;SDS011;26811;53.160;8.202;2023-04-25T18:54:54;9.45;;;3.30;;
41059;SDS011;26811;53.160;8.202;2023-04-25T18:59:55;12.98;;;2.47;;
41059;SDS011;26811;53.160;8.202;2023-04-25T19:04:57;13.38;;;2.58;;
41059;SDS011;26811;53.160;8.202;2023-04-25T19:09:57;8.77;;;2.85;;
41059;SDS011;26811;53.160;8.202;2023-04-25T19:14:58;11.55;;;2.45;;
41059;SDS011;26811;53.160;8.202;2023-04-25T19:19:59;9.80;;;2.45;;
41059;SDS011;26811;53.160;8.202;2023-04-25T19:25:00;12.82;;;4.50;;
41059;SDS011;26811;53.160;8.202;2023-04-25T19:30:00;33.50;;;11.75;;
41059;SDS011;26811;53.160;8.202;2023-04-25T19:35:07;13.50;;;6.28;;
41059;SDS011;26811;53.160;8.202;2023-04-25T19:40:09;14.27;;;3.63;;
41059;SDS011;26811;53.160;8.202;2023-04-25T19:45:10;18.55;;;5.43;;
41059;SDS011;26811;53.160;8.202;2023-04-25T19:50:11;14.27;;;4.63;;
41059;SDS011;26811;53.160;8.202;2023-04-25T19:55:11;12.95;;;5.43;;
41059;SDS011;26811;53.160;8.202;2023-04-25T20:00:13;19.23;;;6.03;;
41059;SDS011;26811;53.160;8.202;2023-04-25T20:05:16;14.45;;;7.07;;
41059;SDS011;26811;53.160;8.202;2023-04-25T20:10:16;12.63;;;4.13;;
41059;SDS011;26811;53.160;8.202;2023-04-25T20:15:17;13.23;;;3.67;;
41059;SDS011;26811;53.160;8.202;2023-04-25T20:20:18;11.05;;;3.25;;
41059;SDS011;26811;53.160;8.202;2023-04-25T20:25:19;8.13;;;3.28;;
41059;SDS011;26811;53.160;8.202;2023-04-25T20:30:19;14.10;;;3.42;;
41059;SDS011;26811;53.160;8.202;2023-04-25T20:35:20;13.02;;;3.72;;
41059;SDS011;26811;53.160;8.202;2023-04-25T20:40:22;12.82;;;4.22;;
41059;SDS011;26811;53.160;8.202;2023-04-25T20:45:22;17.63;;;4.40;;
41059;SDS011;26811;53.160;8.202;2023-04-25T20:50:31;11.38;;;3.80;;
41059;SDS011;26811;53.160;8.202;2023-04-25T20:55:32;11.10;;;4.13;;
41059;SDS011;26811;53.160;8.202;2023-04-25T21:00:33;12.77;;;4.38;;
41059;SDS011;26811;53.160;8.202;2023-04-25T21:05:33;14.02;;;5.53;;
41059;SDS011;26811;53.160;8.202;2023-04-25T21:10:35;11.80;;;6.00;;
41059;SDS011;26811;53.160;8.202;2023-04-25T21:15:36;11.40;;;4.28;;
41059;SDS011;26811;53.160;8.202;2023-04-25T21:20:37;16.45;;;5.13;;
41059;SDS011;26811;53.160;8.202;2023-04-25T21:25:38;14.07;;;4.00;;
41059;SDS011;26811;53.160;8.202;2023-04-25T21:30:41;14.32;;;4.20;;
41059;SDS011;26811;53.160;8.202;2023-04-25T21:35:41;15.55;;;4.68;;
41059;SDS011;26811;53.160;8.202;2023-04-25T21:40:45;20.23;;;6.30;;
41059;SDS011;26811;53.160;8.202;2023-04-25T21:45:46;11.52;;;5.72;;
41059;SDS011;26811;53.160;8.202;2023-04-25T21:50:46;11.00;;;5.03;;
41059;SDS011;26811;53.160;8.202;2023-04-25T21:55:47;12.13;;;5.75;;
41059;SDS011;26811;53.160;8.202;2023-04-25T22:00:47;13.00;;;6.40;;
41059;SDS011;26811;53.160;8.202;2023-04-25T22:05:48;18.75;;;7.38;;
41059;SDS011;26811;53.160;8.202;2023-04-25T22:10:48;19.00;;;8.18;;
41059;SDS011;26811;53.160;8.202;2023-04-25T22:15:49;10.98;;;3.67;;
41059;SDS011;26811;53.160;8.202;2023-04-25T22:20:50;12.07;;;3.22;;
41059;SDS011;26811;53.160;8.202;2023-04-25T22:25:50;11.93;;;4.05;;
41059;SDS011;26811;53.160;8.202;2023-04-25T22:30:54;13.27;;;4.10;;
41059;SDS011;26811;53.160;8.202;2023-04-25T22:35:55;8.23;;;3.30;;
41059;SDS011;26811;53.160;8.202;2023-04-25T22:40:55;11.68;;;3.92;;
41059;SDS011;26811;53.160;8.202;2023-04-25T22:45:56;9.75;;;3.90;;
41059;SDS011;26811;53.160;8.202;2023-04-25T22:51:01;14.63;;;3.90;;
41059;SDS011;26811;53.160;8.202;2023-04-25T22:56:03;14.38;;;4.40;;
41059;SDS011;26811;53.160;8.202;2023-04-25T23:01:04;17.75;;;3.95;;
41059;SDS011;26811;53.160;8.202;2023-04-25T23:06:10;9.90;;;3.70;;
41059;SDS011;26811;53.160;8.202;2023-04-25T23:11:12;15.25;;;4.30;;
41059;SDS011;26811;53.160;8.202;2023-04-25T23:16:13;8.55;;;3.72;;
41059;SDS011;26811;53.160;8.202;2023-04-25T23:21:13;10.30;;;4.00;;
41059;SDS011;26811;53.160;8.202;2023-04-25T23:26:17;7.65;;;3.90;;
41059;SDS011;26811;53.160;8.202;2023-04-25T23:31:18;14.35;;;4.05;;
41059;SDS011;26811;53.160;8.202;2023-04-25T23:36:18;7.43;;;3.72;;
41059;SDS011;26811;53.160;8.202;2023-04-25T23:41:22;14.30;;;4.32;;
41059;SDS011;26811;53.160;8.202;2023-04-25T23:46:24;13.32;;;4.93;;
41059;SDS011;26811;53.160;8.202;2023-04-25T23:51:27;7.07;;;4.03;;
41059;SDS011;26811;53.160;8.202;2023-04-25T23:56:28;9.10;;;3.92;;
